Garden Ridge, Texas
Current Conditions -  °F | °C
As of 9:58 PM on Sunday 23 Nov 2014 (Local Time) from KRND Reporting Station
Clear Clear  
Wind Chill: 67°   Ceiling: Unl
Heat Index: 67°   Visibility: 10mi
Dew Point: 41°   Wind: 9mph
Humidity: 40%   Direction: 280°W
Pressure: 29.72"   Gusts: NA
Location:  29.6654°N, 98.3191°W
Report Text: KRND 240358Z AUTO 28008KT 10SM CLR 19/05 A2972 RMK AO2 SLP059 T01920051
Loading
Personal Weather Stations






























Interactive Weather Map New forecast layout! Learn more

10-Day Weather Forecast

Advertisements
Track Severe Weather on mobile